createdAt,value
2018-04-23T00:00:10.463Z,8.70
2018-04-23T00:02:38.741Z,7.63
2018-04-23T00:05:07.733Z,8.00
2018-04-23T00:07:36.824Z,8.70
2018-04-23T00:10:05.852Z,8.33
2018-04-23T00:12:34.871Z,8.93
2018-04-23T00:15:03.862Z,8.60
2018-04-23T00:17:32.853Z,8.93
2018-04-23T00:20:01.071Z,9.77
2018-04-23T00:22:30.158Z,9.50
2018-04-23T00:24:59.165Z,9.37
2018-04-23T00:27:28.169Z,9.30
2018-04-23T00:29:57.181Z,9.13
2018-04-23T00:32:25.522Z,10.17
2018-04-23T00:34:54.290Z,8.83
2018-04-23T00:37:24.311Z,9.00
2018-04-23T00:39:53.306Z,9.50
2018-04-23T00:42:22.297Z,9.03
2018-04-23T00:44:50.542Z,10.07
2018-04-23T00:47:18.745Z,8.90
2018-04-23T00:49:46.960Z,8.47
2018-04-23T00:52:15.209Z,9.20
2018-04-23T00:54:43.977Z,7.90
2018-04-23T00:57:13.011Z,8.20
2018-04-23T00:59:41.284Z,7.80
2018-04-23T01:02:10.296Z,7.57
2018-04-23T01:04:38.549Z,7.80
2018-04-23T01:07:07.575Z,7.03
2018-04-23T01:09:36.647Z,7.40
2018-04-23T01:12:04.841Z,6.90
2018-04-23T01:14:33.067Z,5.93
2018-04-23T01:17:01.316Z,6.30
2018-04-23T01:19:29.534Z,5.57
2018-04-23T01:21:57.806Z,5.37
2018-04-23T01:24:26.823Z,5.80
2018-04-23T01:26:55.903Z,5.37
2018-04-23T01:29:24.130Z,5.00
2018-04-23T01:31:52.375Z,5.70
2018-04-23T01:34:20.600Z,5.50
2018-04-23T01:36:49.616Z,5.40
2018-04-23T01:39:18.609Z,6.00
2018-04-23T01:41:48.400Z,6.17
2018-04-23T01:44:16.772Z,6.10
2018-04-23T01:46:45.101Z,5.73
2018-04-23T01:49:14.871Z,5.60
2018-04-23T01:51:44.032Z,4.97
2018-04-23T01:54:12.266Z,5.60
2018-04-23T01:56:40.540Z,5.50
2018-04-23T01:59:08.801Z,5.50
2018-04-23T02:01:36.989Z,5.13
2018-04-23T02:04:05.983Z,5.30
2018-04-23T02:06:34.271Z,4.93
2018-04-23T02:09:02.499Z,5.20
2018-04-23T02:11:30.705Z,4.87
2018-04-23T02:13:58.936Z,5.00
2018-04-23T02:16:27.140Z,5.43
2018-04-23T02:18:56.114Z,5.37
2018-04-23T02:21:24.325Z,4.83
2018-04-23T02:23:53.315Z,5.10
2018-04-23T02:26:21.520Z,4.53
2018-04-23T02:28:50.509Z,5.00
2018-04-23T02:31:18.725Z,5.00
2018-04-23T02:33:47.713Z,4.80
2018-04-23T02:36:16.698Z,4.40
2018-04-23T02:38:45.009Z,4.57
2018-04-23T02:41:13.225Z,4.70
2018-04-23T02:43:41.454Z,4.53
2018-04-23T02:46:09.686Z,5.43
2018-04-23T02:48:38.674Z,5.40
2018-04-23T02:51:07.258Z,5.60
2018-04-23T02:53:35.757Z,5.67
2018-04-23T02:56:03.958Z,5.00
2018-04-23T02:58:32.953Z,5.87
2018-04-23T03:01:01.169Z,5.57
2018-04-23T03:03:29.393Z,5.77
2018-04-23T03:05:57.621Z,5.40
2018-04-23T03:08:25.913Z,5.97
2018-04-23T03:10:54.125Z,5.77
2018-04-23T03:13:22.353Z,6.00
2018-04-23T03:15:50.578Z,5.97
2018-04-23T03:18:18.807Z,6.10
2018-04-23T03:20:47.044Z,5.77
2018-04-23T03:23:15.265Z,5.67
2018-04-23T03:25:43.538Z,6.87
2018-04-23T03:28:12.544Z,6.30
2018-04-23T03:30:40.826Z,7.80
2018-04-23T03:33:09.812Z,7.43
2018-04-23T03:35:38.053Z,7.70
2018-04-23T03:38:06.435Z,7.57
2018-04-23T03:40:34.657Z,7.70
2018-04-23T03:43:02.870Z,8.00
2018-04-23T03:45:31.104Z,8.23
2018-04-23T03:48:00.065Z,8.90
2018-04-23T03:50:28.303Z,8.33
2018-04-23T03:52:56.512Z,9.17
2018-04-23T03:55:24.721Z,9.13
2018-04-23T03:57:52.945Z,10.00
2018-04-23T04:00:21.299Z,9.17
2018-04-23T04:02:49.487Z,9.60
2018-04-23T04:05:17.788Z,9.70
2018-04-23T04:07:46.017Z,9.50
2018-04-23T04:10:14.252Z,11.00
2018-04-23T04:12:54.473Z,10.30
2018-04-23T04:15:34.581Z,10.33
2018-04-23T04:21:12.516Z,11.00
2018-04-23T04:23:40.746Z,10.87
2018-04-23T04:26:08.981Z,10.23
2018-04-23T04:28:37.225Z,11.03
2018-04-23T04:31:05.817Z,11.60
2018-04-23T04:33:34.889Z,11.57
2018-04-23T04:36:03.109Z,12.23
2018-04-23T04:38:31.341Z,12.03
2018-04-23T04:40:59.576Z,11.43
2018-04-23T04:43:27.792Z,12.10
2018-04-23T04:45:56.804Z,12.20
2018-04-23T04:48:28.192Z,9.40
2018-04-23T04:50:57.253Z,11.87
2018-04-23T04:53:26.368Z,12.50
2018-04-23T04:55:55.372Z,12.83
2018-04-23T04:58:28.505Z,12.33
2018-04-23T05:00:56.765Z,13.40
2018-04-23T05:03:25.873Z,13.43
2018-04-23T05:05:54.893Z,14.47
2018-04-23T05:08:23.141Z,15.37
2018-04-23T05:10:51.376Z,13.93
2018-04-23T05:13:20.563Z,14.90
2018-04-23T05:15:49.564Z,14.23
2018-04-23T05:18:17.784Z,14.37
2018-04-23T05:20:46.004Z,15.43
2018-04-23T05:23:14.270Z,10.07
2018-04-23T05:25:43.252Z,16.60
2018-04-23T05:28:12.258Z,15.77
2018-04-23T05:30:41.264Z,15.57
2018-04-23T05:33:10.285Z,14.57
2018-04-23T05:35:38.507Z,15.50
2018-04-23T05:38:06.817Z,13.73
2018-04-23T05:40:35.133Z,15.77
2018-04-23T05:43:04.118Z,15.70
2018-04-23T05:45:32.405Z,14.77
2018-04-23T05:48:00.624Z,16.13
2018-04-23T05:50:28.867Z,16.40
2018-04-23T05:52:57.096Z,15.93
2018-04-23T05:55:26.078Z,16.50
2018-04-23T05:57:54.293Z,15.90
2018-04-23T06:00:22.516Z,16.87
2018-04-23T06:02:50.738Z,16.73
2018-04-23T06:05:18.969Z,16.20
2018-04-23T06:07:47.212Z,17.17
2018-04-23T06:10:15.428Z,14.37
2018-04-23T06:12:43.688Z,16.20
2018-04-23T06:15:11.930Z,16.70
2018-04-23T06:20:04.909Z,17.40
2018-04-23T06:22:33.984Z,16.07
2018-04-23T06:25:02.992Z,15.93
2018-04-23T06:27:32.021Z,18.03
2018-04-23T06:30:00.269Z,16.87
2018-04-23T06:32:28.581Z,14.90
2018-04-23T06:34:57.700Z,16.70
2018-04-23T06:37:25.985Z,17.13
2018-04-23T06:39:54.276Z,18.50
2018-04-23T06:42:23.280Z,17.47
2018-04-23T06:44:52.285Z,17.50
2018-04-23T06:47:21.289Z,16.67
2018-04-23T06:49:50.273Z,16.93
2018-04-23T06:52:18.681Z,17.93
2018-04-23T06:54:47.668Z,17.67
2018-04-23T06:57:15.900Z,18.27
2018-04-23T06:59:44.133Z,18.67
2018-04-23T07:02:12.377Z,18.20
2018-04-23T07:04:40.659Z,18.70
2018-04-23T07:07:09.694Z,11.00
2018-04-23T07:09:38.022Z,19.60
2018-04-23T07:12:06.230Z,18.23
2018-04-23T07:14:34.444Z,16.00
2018-04-23T07:17:02.663Z,14.20
2018-04-23T07:19:30.897Z,18.07
2018-04-23T07:22:00.007Z,15.40
2018-04-23T07:24:29.008Z,13.53
2018-04-23T07:26:58.251Z,19.00
2018-04-23T07:29:26.493Z,19.67
2018-04-23T07:31:54.728Z,17.00
2018-04-23T07:34:22.985Z,14.70
2018-04-23T07:36:51.978Z,19.60
2018-04-23T07:39:20.197Z,20.07
2018-04-23T07:41:48.466Z,20.70
2018-04-23T07:44:17.469Z,21.70
2018-04-23T07:46:47.409Z,22.23
2018-04-23T07:49:16.413Z,22.60
2018-04-23T07:51:45.417Z,24.13
2018-04-23T07:54:14.474Z,24.07
2018-04-23T07:56:42.878Z,22.43
2018-04-23T07:59:11.168Z,16.23
2018-04-23T08:01:39.396Z,22.70
2018-04-23T08:04:08.409Z,23.40
2018-04-23T08:06:36.663Z,24.60
2018-04-23T08:09:07.754Z,28.67
2018-04-23T08:11:35.976Z,29.43
2018-04-23T08:14:04.198Z,30.27
2018-04-23T08:16:32.414Z,30.27
2018-04-23T08:19:00.664Z,29.83
2018-04-23T08:21:28.881Z,28.53
2018-04-23T08:23:57.881Z,19.23
2018-04-23T08:26:26.084Z,26.17
2018-04-23T08:28:54.349Z,25.43
2018-04-23T08:31:23.341Z,24.90
2018-04-23T08:33:51.565Z,24.90
2018-04-23T08:36:19.846Z,22.63
2018-04-23T08:38:48.851Z,22.33
2018-04-23T08:41:17.852Z,22.30
2018-04-23T08:43:46.862Z,21.37
2018-04-23T08:46:15.070Z,22.90
2018-04-23T08:48:43.289Z,26.20
2018-04-23T08:51:11.606Z,24.73
2018-04-23T08:53:41.357Z,26.57
2018-04-23T08:56:10.405Z,28.77
2018-04-23T08:58:38.843Z,11.13
2018-04-23T09:01:07.159Z,25.07
2018-04-23T09:03:35.431Z,18.20
2018-04-23T09:06:04.430Z,23.20
2018-04-23T09:08:33.433Z,27.33
2018-04-23T09:11:02.431Z,27.17
2018-04-23T09:13:30.673Z,24.93
2018-04-23T09:15:58.899Z,27.50
2018-04-23T09:18:27.274Z,25.10
2018-04-23T09:20:55.763Z,19.40
2018-04-23T09:23:23.948Z,18.00
2018-04-23T09:25:52.186Z,17.67
2018-04-23T09:28:21.181Z,29.87
2018-04-23T09:30:49.405Z,30.47
2018-04-23T09:33:17.625Z,10.80
2018-04-23T09:35:45.841Z,36.07
2018-04-23T09:38:14.102Z,15.13
2018-04-23T09:40:42.337Z,32.27
2018-04-23T09:43:11.429Z,33.73
2018-04-23T09:45:39.683Z,33.03
2018-04-23T09:48:07.921Z,31.70
2018-04-23T09:50:36.933Z,30.37
2018-04-23T09:53:05.213Z,31.40
2018-04-23T09:55:34.207Z,28.67
2018-04-23T09:58:02.435Z,27.70
2018-04-23T10:00:30.681Z,28.90
2018-04-23T10:02:58.906Z,26.47
2018-04-23T10:05:27.138Z,20.23
2018-04-23T10:07:55.461Z,28.07
2018-04-23T10:10:24.466Z,28.77
2018-04-23T10:12:53.444Z,29.67
2018-04-23T10:15:21.677Z,22.90
2018-04-23T10:17:49.897Z,29.07
2018-04-23T10:20:18.179Z,28.03
2018-04-23T10:22:46.372Z,15.77
2018-04-23T10:25:14.590Z,12.87
2018-04-23T10:27:42.818Z,23.97
2018-04-23T10:30:11.068Z,13.70
2018-04-23T10:32:39.304Z,27.80
2018-04-23T10:35:07.566Z,22.20
2018-04-23T10:37:36.644Z,26.23
2018-04-23T10:40:04.854Z,26.73
2018-04-23T10:42:33.844Z,13.37
2018-04-23T10:45:02.077Z,24.87
2018-04-23T10:47:30.333Z,18.87
2018-04-23T10:49:58.528Z,20.63
2018-04-23T10:52:27.513Z,20.40
2018-04-23T10:54:55.742Z,15.60
2018-04-23T10:57:23.982Z,12.60
2018-04-23T10:59:52.222Z,17.03
2018-04-23T11:02:20.449Z,12.80
2018-04-23T11:04:48.773Z,14.20
2018-04-23T11:07:17.809Z,10.10
2018-04-23T11:09:46.048Z,10.97
2018-04-23T11:12:14.273Z,11.00
2018-04-23T11:14:42.520Z,10.90
2018-04-23T11:17:11.491Z,10.00
2018-04-23T11:19:39.780Z,9.37
2018-04-23T11:22:08.032Z,8.80
2018-04-23T11:24:37.029Z,10.10
2018-04-23T11:27:06.045Z,8.60
2018-04-23T11:29:35.033Z,8.77
2018-04-23T11:32:03.253Z,7.20
2018-04-23T11:34:31.489Z,6.70
2018-04-23T11:37:00.197Z,5.87
2018-04-23T11:39:28.388Z,6.00
2018-04-23T11:41:57.741Z,4.73
2018-04-23T11:44:26.886Z,4.90
2018-04-23T11:46:57.082Z,4.43
2018-04-23T11:49:26.198Z,4.50
2018-04-23T11:51:54.402Z,3.77
2018-04-23T11:54:22.617Z,3.80
2018-04-23T11:56:50.829Z,4.37
2018-04-23T11:59:19.116Z,3.87
2018-04-23T12:01:47.273Z,4.20
2018-04-23T12:04:15.497Z,4.23
2018-04-23T12:06:44.515Z,3.50
2018-04-23T12:09:13.488Z,3.77
2018-04-23T12:11:41.757Z,4.07
2018-04-23T12:14:09.945Z,4.87
2018-04-23T12:16:38.171Z,4.33
2018-04-23T12:19:07.180Z,3.33
2018-04-23T12:21:37.537Z,6.50
2018-04-23T12:24:05.739Z,4.10
2018-04-23T12:26:33.955Z,2.87
2018-04-23T12:29:02.167Z,25.77
2018-04-23T12:31:31.976Z,4.20
2018-04-23T12:34:00.158Z,3.93
2018-04-23T12:36:28.482Z,3.00
2018-04-23T12:38:57.452Z,3.33
2018-04-23T12:41:25.681Z,3.47
2018-04-23T12:43:53.941Z,3.43
2018-04-23T12:46:24.875Z,5.37
2018-04-23T12:48:54.471Z,3.60
2018-04-23T12:51:23.616Z,4.10
2018-04-23T12:53:51.840Z,3.70
2018-04-23T12:56:20.917Z,3.83
2018-04-23T12:58:49.261Z,3.80
2018-04-23T13:01:18.612Z,3.70
2018-04-23T13:03:46.826Z,3.70
2018-04-23T13:06:16.071Z,3.47
2018-04-23T13:08:45.152Z,4.00
2018-04-23T13:11:14.339Z,3.60
2018-04-23T13:13:46.013Z,4.13
2018-04-23T13:16:14.551Z,4.13
2018-04-23T13:18:43.528Z,3.63
2018-04-23T13:21:15.679Z,3.80
2018-04-23T13:23:43.907Z,3.97
2018-04-23T13:26:12.922Z,4.03
2018-04-23T13:28:42.965Z,4.03
2018-04-23T13:31:12.153Z,3.40
2018-04-23T13:33:40.381Z,3.93
2018-04-23T13:36:08.717Z,3.70
2018-04-23T13:38:37.897Z,2.93
2018-04-23T13:41:07.091Z,3.30
2018-04-23T13:43:35.449Z,3.67
2018-04-23T13:46:10.499Z,2.97
2018-04-23T13:48:39.012Z,2.87
2018-04-23T13:51:07.237Z,3.00
2018-04-23T13:53:36.563Z,2.90
2018-04-23T13:56:06.381Z,3.47
2018-04-23T13:58:34.671Z,3.70
2018-04-23T14:01:02.873Z,3.40
2018-04-23T14:03:31.162Z,3.70
2018-04-23T14:06:00.165Z,3.80
2018-04-23T14:08:28.449Z,2.80
2018-04-23T14:10:56.670Z,2.87
2018-04-23T14:13:24.938Z,2.90
2018-04-23T14:15:53.922Z,3.90
2018-04-23T14:18:22.123Z,4.10
2018-04-23T14:20:50.342Z,4.33
2018-04-23T14:23:18.568Z,4.73
2018-04-23T14:25:46.780Z,4.60
2018-04-23T14:28:15.074Z,3.83
2018-04-23T14:30:43.304Z,4.93
2018-04-23T14:33:11.575Z,4.47
2018-04-23T14:35:40.598Z,4.40
2018-04-23T14:38:08.825Z,6.97
2018-04-23T14:40:37.964Z,5.00
2018-04-23T14:43:06.301Z,2.70
2018-04-23T14:45:34.523Z,2.60
2018-04-23T14:48:02.752Z,2.33
2018-04-23T14:50:32.337Z,5.43
2018-04-23T14:53:00.575Z,5.93
2018-04-23T14:55:29.584Z,5.37
2018-04-23T14:57:57.794Z,5.17
2018-04-23T15:00:26.001Z,4.00
2018-04-23T15:02:55.164Z,5.27
2018-04-23T15:05:23.386Z,5.00
2018-04-23T15:07:51.599Z,2.63
2018-04-23T15:10:20.003Z,2.37
2018-04-23T15:12:49.064Z,3.57
2018-04-23T15:15:17.983Z,5.37
2018-04-23T15:17:46.236Z,4.57
2018-04-23T15:20:14.478Z,3.13
2018-04-23T15:22:42.800Z,5.27
2018-04-23T15:25:11.035Z,3.20
2018-04-23T15:27:39.360Z,4.30
2018-04-23T15:30:08.436Z,2.30
2018-04-23T15:32:36.685Z,5.40
2018-04-23T15:35:04.921Z,5.17
2018-04-23T15:37:33.151Z,4.80
2018-04-23T15:40:01.380Z,2.47
2018-04-23T15:42:29.604Z,3.07
2018-04-23T15:44:57.824Z,2.30
2018-04-23T15:47:26.094Z,2.07
2018-04-23T15:49:54.355Z,4.33
2018-04-23T15:52:22.688Z,2.27
2018-04-23T15:54:51.732Z,4.80
2018-04-23T15:57:19.967Z,2.33
2018-04-23T15:59:48.945Z,3.57
2018-04-23T16:02:17.220Z,2.23
2018-04-23T16:04:46.641Z,3.40
2018-04-23T16:07:15.880Z,2.27
2018-04-23T16:09:44.147Z,3.07
2018-04-23T16:12:12.372Z,2.10
2018-04-23T16:14:40.604Z,3.37
2018-04-23T16:17:08.879Z,3.43
2018-04-23T16:19:37.117Z,4.47
2018-04-23T16:22:05.360Z,4.13
2018-04-23T16:24:33.582Z,1.97
2018-04-23T16:27:01.811Z,4.23
2018-04-23T16:29:30.042Z,3.37
2018-04-23T16:31:58.271Z,1.90
2018-04-23T16:34:26.478Z,3.10
2018-04-23T16:36:55.456Z,4.33
2018-04-23T16:39:25.199Z,2.77
2018-04-23T16:41:53.537Z,1.70
2018-04-23T16:44:27.165Z,2.00
2018-04-23T16:46:49.989Z,1.83
2018-04-23T16:49:20.460Z,1.83
2018-04-23T16:51:48.682Z,1.80
2018-04-23T16:54:16.903Z,4.87
2018-04-23T16:56:45.902Z,1.60
2018-04-23T16:59:14.884Z,3.90
2018-04-23T17:01:43.380Z,1.80
2018-04-23T17:04:11.590Z,3.70
2018-04-23T17:06:40.587Z,3.27
2018-04-23T17:09:08.841Z,3.63
2018-04-23T17:11:37.125Z,4.50
2018-04-23T17:14:05.396Z,2.00
2018-04-23T17:16:33.620Z,4.73
2018-04-23T17:19:01.841Z,1.90
2018-04-23T17:21:30.065Z,3.00
2018-04-23T17:23:58.312Z,3.67
2018-04-23T17:26:28.465Z,3.07
2018-04-23T17:28:58.506Z,2.77
2018-04-23T17:31:27.519Z,3.30
2018-04-23T17:33:56.585Z,2.63
2018-04-23T17:36:24.876Z,2.60
2018-04-23T17:38:53.266Z,2.40
2018-04-23T17:41:22.513Z,3.43
2018-04-23T17:43:51.602Z,3.60
2018-04-23T17:46:20.543Z,3.30
2018-04-23T17:48:48.782Z,3.10
2018-04-23T17:51:17.123Z,3.43
2018-04-23T17:53:45.546Z,3.40
2018-04-23T17:56:14.529Z,3.00
2018-04-23T17:58:42.884Z,3.23
2018-04-23T18:01:11.212Z,2.13
2018-04-23T18:03:40.168Z,1.93
2018-04-23T18:06:08.504Z,3.40
2018-04-23T18:08:39.488Z,3.13
2018-04-23T18:11:08.538Z,2.87
2018-04-23T18:13:36.868Z,2.10
2018-04-23T18:16:05.235Z,3.70
2018-04-23T18:18:33.446Z,3.77
2018-04-23T18:21:01.672Z,3.17
2018-04-23T18:23:29.898Z,2.43
2018-04-23T18:25:58.886Z,3.77
2018-04-23T18:28:27.102Z,3.20
2018-04-23T18:30:56.083Z,2.60
2018-04-23T18:33:24.360Z,3.17
2018-04-23T18:35:52.583Z,2.50
2018-04-23T18:38:21.584Z,2.33
2018-04-23T18:40:50.580Z,2.60
2018-04-23T18:43:18.796Z,2.33
2018-04-23T18:45:47.020Z,2.30
2018-04-23T18:48:15.229Z,2.00
2018-04-23T18:50:43.527Z,2.30
2018-04-23T18:53:11.800Z,2.87
2018-04-23T18:55:40.032Z,2.47
2018-04-23T18:58:09.018Z,2.53
2018-04-23T19:00:37.494Z,2.73
2018-04-23T19:03:06.359Z,2.90
2018-04-23T19:05:34.595Z,2.20
2018-04-23T19:08:03.528Z,2.83
2018-04-23T19:10:31.761Z,2.27
2018-04-23T19:13:00.099Z,2.47
2018-04-23T19:15:29.117Z,2.27
2018-04-23T19:17:57.321Z,2.50
2018-04-23T19:20:25.544Z,2.40
2018-04-23T19:22:53.841Z,2.03
2018-04-23T19:25:22.756Z,2.00
2018-04-23T19:27:50.970Z,2.40
2018-04-23T19:30:19.213Z,2.50
2018-04-23T19:32:47.469Z,2.23
2018-04-23T19:35:16.459Z,1.80
2018-04-23T19:37:44.648Z,2.40
2018-04-23T19:40:12.872Z,2.60
2018-04-23T19:42:43.127Z,2.67
2018-04-23T19:45:11.305Z,2.80
2018-04-23T19:47:39.544Z,2.50
2018-04-23T19:50:07.870Z,2.37
2018-04-23T19:52:36.505Z,2.50
2018-04-23T19:55:05.194Z,2.63
2018-04-23T19:57:33.416Z,2.63
2018-04-23T20:00:01.667Z,2.20
2018-04-23T20:02:30.018Z,2.50
2018-04-23T20:04:59.015Z,2.13
2018-04-23T20:07:27.216Z,2.10
2018-04-23T20:09:56.211Z,1.73
2018-04-23T20:12:24.504Z,1.70
2018-04-23T20:14:52.732Z,2.47
2018-04-23T20:17:20.977Z,2.20
2018-04-23T20:19:49.197Z,2.70
2018-04-23T20:22:17.413Z,2.07
2018-04-23T20:24:46.411Z,2.80
2018-04-23T20:27:14.640Z,2.27
2018-04-23T20:29:42.875Z,3.03
2018-04-23T20:32:11.107Z,2.50
2018-04-23T20:34:39.365Z,2.80
2018-04-23T20:37:07.616Z,2.07
2018-04-23T20:39:36.578Z,2.30
2018-04-23T20:42:04.811Z,2.20
2018-04-23T20:44:33.903Z,2.80
2018-04-23T20:47:02.188Z,2.40
2018-04-23T20:49:30.510Z,2.73
2018-04-23T20:51:59.554Z,2.40
2018-04-23T20:54:27.831Z,2.43
2018-04-23T20:56:56.813Z,2.63
2018-04-23T20:59:25.037Z,2.57
2018-04-23T21:01:54.005Z,2.83
2018-04-23T21:04:22.244Z,2.33
2018-04-23T21:06:50.554Z,2.77
2018-04-23T21:09:19.515Z,2.50
2018-04-23T21:11:47.733Z,2.80
2018-04-23T21:14:16.722Z,2.40
2018-04-23T21:16:44.956Z,2.80
2018-04-23T21:19:13.949Z,2.63
2018-04-23T21:21:42.953Z,2.90
2018-04-23T21:24:11.946Z,2.87
2018-04-23T21:26:40.159Z,2.50
2018-04-23T21:29:08.407Z,3.03
2018-04-23T21:31:36.661Z,2.80
2018-04-23T21:34:05.674Z,2.80
2018-04-23T21:36:33.866Z,2.80
2018-04-23T21:39:02.210Z,3.23
2018-04-23T21:41:30.468Z,2.60
2018-04-23T21:43:58.673Z,2.80
2018-04-23T21:46:27.657Z,3.53
2018-04-23T21:48:55.869Z,3.27
2018-04-23T21:51:24.852Z,2.83
2018-04-23T21:53:53.085Z,3.17
2018-04-23T21:56:21.353Z,3.10
2018-04-23T21:58:50.320Z,3.00
2018-04-23T22:01:18.549Z,2.53
2018-04-23T22:03:46.756Z,3.13
2018-04-23T22:06:14.976Z,2.87
2018-04-23T22:08:43.196Z,3.10
2018-04-23T22:11:12.193Z,3.53
2018-04-23T22:13:40.458Z,4.20
2018-04-23T22:16:08.666Z,3.43
2018-04-23T22:18:36.993Z,3.63
2018-04-23T22:21:05.205Z,3.03
2018-04-23T22:23:33.421Z,3.80
2018-04-23T22:26:01.756Z,3.40
2018-04-23T22:28:29.980Z,3.37
2018-04-23T22:30:58.308Z,4.00
2018-04-23T22:33:26.500Z,4.03
2018-04-23T22:35:55.506Z,4.03
2018-04-23T22:38:24.613Z,4.43
2018-04-23T22:40:52.824Z,4.33
2018-04-23T22:43:21.817Z,4.23
2018-04-23T22:45:50.800Z,4.90
2018-04-23T22:48:19.018Z,5.23
2018-04-23T22:50:47.344Z,4.70
2018-04-23T22:53:15.483Z,5.10
2018-04-23T22:55:44.597Z,4.90
2018-04-23T22:58:13.580Z,5.70
2018-04-23T23:00:42.568Z,5.40
2018-04-23T23:03:10.797Z,5.47
2018-04-23T23:05:39.075Z,5.77
2018-04-23T23:08:07.328Z,5.13
2018-04-23T23:10:35.549Z,5.53
2018-04-23T23:13:04.532Z,5.43
2018-04-23T23:15:32.769Z,6.17
2018-04-23T23:18:01.029Z,6.73
2018-04-23T23:20:30.029Z,6.50
2018-04-23T23:22:59.043Z,6.10
2018-04-23T23:25:28.082Z,6.80
2018-04-23T23:27:56.308Z,6.47
2018-04-23T23:30:24.552Z,6.37
2018-04-23T23:32:52.762Z,6.23
2018-04-23T23:35:20.986Z,6.07
2018-04-23T23:37:49.385Z,5.70
2018-04-23T23:40:17.676Z,5.63
2018-04-23T23:42:46.673Z,5.80
2018-04-23T23:45:14.908Z,6.13
2018-04-23T23:47:43.134Z,6.27
2018-04-23T23:50:12.896Z,4.90
2018-04-23T23:52:41.897Z,5.43
2018-04-23T23:55:10.918Z,5.60
2018-04-23T23:57:39.174Z,6.13
